sensor_id;sensor_type;location;lat;lon;timestamp;pressure;altitude;pressure_sealevel;temperature;humidity
10071;BME280;5074;53.720;10.014;2022-11-03T00:01:33;101307.44;;;6.54;100.00
10071;BME280;5074;53.720;10.014;2022-11-03T00:04:02;101295.91;;;6.56;100.00
10071;BME280;5074;53.720;10.014;2022-11-03T00:06:30;101299.41;;;6.58;100.00
10071;BME280;5074;53.720;10.014;2022-11-03T00:08:59;101293.25;;;6.56;100.00
10071;BME280;5074;53.720;10.014;2022-11-03T00:11:31;101299.44;;;6.55;100.00
10071;BME280;5074;53.720;10.014;2022-11-03T00:13:59;101290.56;;;6.58;100.00
10071;BME280;5074;53.720;10.014;2022-11-03T00:16:28;101289.69;;;6.59;100.00
10071;BME280;5074;53.720;10.014;2022-11-03T00:18:56;101274.59;;;6.61;100.00
10071;BME280;5074;53.720;10.014;2022-11-03T00:21:24;101280.81;;;6.62;100.00
10071;BME280;5074;53.720;10.014;2022-11-03T00:23:52;101280.78;;;6.60;100.00
10071;BME280;5074;53.720;10.014;2022-11-03T00:26:21;101277.25;;;6.61;100.00
10071;BME280;5074;53.720;10.014;2022-11-03T00:28:52;101272.84;;;6.62;100.00
10071;BME280;5074;53.720;10.014;2022-11-03T00:31:22;101276.38;;;6.60;100.00
10071;BME280;5074;53.720;10.014;2022-11-03T00:33:51;101282.59;;;6.58;100.00
10071;BME280;5074;53.720;10.014;2022-11-03T00:36:21;101259.66;;;6.51;100.00
10071;BME280;5074;53.720;10.014;2022-11-03T00:38:50;101264.94;;;6.54;100.00
10071;BME280;5074;53.720;10.014;2022-11-03T00:41:18;101262.31;;;6.51;100.00
10071;BME280;5074;53.720;10.014;2022-11-03T00:43:47;101261.44;;;6.52;100.00
10071;BME280;5074;53.720;10.014;2022-11-03T00:46:18;101259.66;;;6.51;100.00
10071;BME280;5074;53.720;10.014;2022-11-03T00:48:47;101263.16;;;6.53;100.00
10071;BME280;5074;53.720;10.014;2022-11-03T00:51:16;101261.41;;;6.53;100.00
10071;BME280;5074;53.720;10.014;2022-11-03T00:53:46;101264.97;;;6.51;100.00
10071;BME280;5074;53.720;10.014;2022-11-03T00:56:16;101258.78;;;6.52;100.00
10071;BME280;5074;53.720;10.014;2022-11-03T00:58:45;101264.03;;;6.55;100.00
10071;BME280;5074;53.720;10.014;2022-11-03T01:01:15;101256.97;;;6.52;100.00
10071;BME280;5074;53.720;10.014;2022-11-03T01:03:46;101251.78;;;6.43;100.00
10071;BME280;5074;53.720;10.014;2022-11-03T01:06:28;101247.34;;;6.43;100.00
10071;BME280;5074;53.720;10.014;2022-11-03T01:09:15;101242.91;;;6.42;100.00
10071;BME280;5074;53.720;10.014;2022-11-03T01:11:50;101238.53;;;6.40;100.00
10071;BME280;5074;53.720;10.014;2022-11-03T01:14:20;101233.16;;;6.46;100.00
10071;BME280;5074;53.720;10.014;2022-11-03T01:16:48;101227.91;;;6.38;100.00
10071;BME280;5074;53.720;10.014;2022-11-03T01:19:17;101236.69;;;6.45;100.00
10071;BME280;5074;53.720;10.014;2022-11-03T01:21:45;101240.25;;;6.44;100.00
10071;BME280;5074;53.720;10.014;2022-11-03T01:24:13;101237.59;;;6.42;100.00
10071;BME280;5074;53.720;10.014;2022-11-03T01:26:41;101234.94;;;6.42;100.00
10071;BME280;5074;53.720;10.014;2022-11-03T01:29:09;101228.78;;;6.42;100.00
10071;BME280;5074;53.720;10.014;2022-11-03T01:31:37;101230.53;;;6.43;100.00
10071;BME280;5074;53.720;10.014;2022-11-03T01:34:06;101226.94;;;6.46;100.00
10071;BME280;5074;53.720;10.014;2022-11-03T01:36:35;101223.47;;;6.40;100.00
10071;BME280;5074;53.720;10.014;2022-11-03T01:39:03;101216.38;;;6.42;100.00
10071;BME280;5074;53.720;10.014;2022-11-03T01:41:31;101205.75;;;6.41;100.00
10071;BME280;5074;53.720;10.014;2022-11-03T01:44:24;101199.53;;;6.45;100.00
10071;BME280;5074;53.720;10.014;2022-11-03T01:46:55;101187.19;;;6.39;100.00
10071;BME280;5074;53.720;10.014;2022-11-03T01:49:27;101199.63;;;6.37;100.00
10071;BME280;5074;53.720;10.014;2022-11-03T01:52:00;101188.97;;;6.40;100.00
10071;BME280;5074;53.720;10.014;2022-11-03T01:54:30;101190.72;;;6.41;100.00
10071;BME280;5074;53.720;10.014;2022-11-03T01:57:04;101184.50;;;6.41;100.00
10071;BME280;5074;53.720;10.014;2022-11-03T01:59:33;101179.19;;;6.42;100.00
10071;BME280;5074;53.720;10.014;2022-11-03T02:02:01;101177.44;;;6.43;100.00
10071;BME280;5074;53.720;10.014;2022-11-03T02:04:30;101169.50;;;6.41;100.00
10071;BME280;5074;53.720;10.014;2022-11-03T02:07:09;101162.44;;;6.39;100.00
10071;BME280;5074;53.720;10.014;2022-11-03T02:09:38;101167.75;;;6.37;100.00
10071;BME280;5074;53.720;10.014;2022-11-03T02:12:07;101173.88;;;6.42;100.00
10071;BME280;5074;53.720;10.014;2022-11-03T02:14:38;101167.63;;;6.47;100.00
10071;BME280;5074;53.720;10.014;2022-11-03T02:17:12;101173.91;;;6.39;100.00
10071;BME280;5074;53.720;10.014;2022-11-03T02:19:43;101169.50;;;6.37;100.00
10071;BME280;5074;53.720;10.014;2022-11-03T02:22:50;101169.50;;;6.37;100.00
10071;BME280;5074;53.720;10.014;2022-11-03T02:25:40;101171.31;;;6.36;100.00
10071;BME280;5074;53.720;10.014;2022-11-03T02:28:10;101163.34;;;6.36;100.00
10071;BME280;5074;53.720;10.014;2022-11-03T02:30:41;101161.56;;;6.37;100.00
10071;BME280;5074;53.720;10.014;2022-11-03T02:33:29;101150.91;;;6.38;100.00
10071;BME280;5074;53.720;10.014;2022-11-03T02:36:04;101146.56;;;6.34;100.00
10071;BME280;5074;53.720;10.014;2022-11-03T02:38:35;101130.69;;;6.28;100.00
10071;BME280;5074;53.720;10.014;2022-11-03T02:41:07;101133.34;;;6.26;100.00
10071;BME280;5074;53.720;10.014;2022-11-03T02:43:37;101134.25;;;6.27;100.00
10071;BME280;5074;53.720;10.014;2022-11-03T02:46:06;101140.44;;;6.26;100.00
10071;BME280;5074;53.720;10.014;2022-11-03T02:48:34;101143.94;;;6.28;100.00
10071;BME280;5074;53.720;10.014;2022-11-03T02:51:03;101131.59;;;6.27;100.00
10071;BME280;5074;53.720;10.014;2022-11-03T02:53:33;101125.38;;;6.26;100.00
10071;BME280;5074;53.720;10.014;2022-11-03T02:56:06;101128.94;;;6.27;100.00
10071;BME280;5074;53.720;10.014;2022-11-03T02:58:40;101120.13;;;6.22;100.00
10071;BME280;5074;53.720;10.014;2022-11-03T03:01:16;101114.84;;;6.20;100.00
10071;BME280;5074;53.720;10.014;2022-11-03T03:03:48;101114.84;;;6.20;100.00
10071;BME280;5074;53.720;10.014;2022-11-03T03:06:21;101108.63;;;6.24;100.00
10071;BME280;5074;53.720;10.014;2022-11-03T03:08:54;101107.72;;;6.27;100.00
10071;BME280;5074;53.720;10.014;2022-11-03T03:11:25;101110.31;;;6.30;100.00
10071;BME280;5074;53.720;10.014;2022-11-03T03:14:09;101102.38;;;6.29;100.00
10071;BME280;5074;53.720;10.014;2022-11-03T03:16:47;101097.09;;;6.27;100.00
10071;BME280;5074;53.720;10.014;2022-11-03T03:19:29;101087.34;;;6.28;100.00
10071;BME280;5074;53.720;10.014;2022-11-03T03:22:02;101079.47;;;6.20;100.00
10071;BME280;5074;53.720;10.014;2022-11-03T03:24:39;101083.91;;;6.18;100.00
10071;BME280;5074;53.720;10.014;2022-11-03T03:27:13;101090.16;;;6.14;100.00
10071;BME280;5074;53.720;10.014;2022-11-03T03:29:45;101084.84;;;6.14;100.00
10071;BME280;5074;53.720;10.014;2022-11-03T03:32:18;101084.88;;;6.11;100.00
10071;BME280;5074;53.720;10.014;2022-11-03T03:34:48;101082.25;;;6.07;100.00
10071;BME280;5074;53.720;10.014;2022-11-03T03:37:18;101082.25;;;6.09;100.00
10071;BME280;5074;53.720;10.014;2022-11-03T03:39:51;101072.56;;;6.05;100.00
10071;BME280;5074;53.720;10.014;2022-11-03T03:42:24;101071.69;;;6.04;100.00
10071;BME280;5074;53.720;10.014;2022-11-03T03:44:54;101079.66;;;6.03;100.00
10071;BME280;5074;53.720;10.014;2022-11-03T03:47:26;101062.91;;;5.95;100.00
10071;BME280;5074;53.720;10.014;2022-11-03T03:49:55;101070.84;;;6.02;100.00
10071;BME280;5074;53.720;10.014;2022-11-03T03:52:24;101071.75;;;6.00;100.00
10071;BME280;5074;53.720;10.014;2022-11-03T03:54:53;101073.50;;;6.02;100.00
10071;BME280;5074;53.720;10.014;2022-11-03T03:57:23;101069.06;;;6.01;100.00
10071;BME280;5074;53.720;10.014;2022-11-03T03:59:52;101062.00;;;6.00;100.00
10071;BME280;5074;53.720;10.014;2022-11-03T04:02:20;101059.25;;;6.08;100.00
10071;BME280;5074;53.720;10.014;2022-11-03T04:04:48;101061.09;;;6.03;100.00
10071;BME280;5074;53.720;10.014;2022-11-03T04:07:16;101066.41;;;6.03;100.00
10071;BME280;5074;53.720;10.014;2022-11-03T04:10:09;101056.75;;;5.97;100.00
10071;BME280;5074;53.720;10.014;2022-11-03T04:12:40;101054.09;;;5.97;100.00
10071;BME280;5074;53.720;10.014;2022-11-03T04:15:26;101052.31;;;5.95;100.00
10071;BME280;5074;53.720;10.014;2022-11-03T04:18:23;101057.59;;;5.98;100.00
10071;BME280;5074;53.720;10.014;2022-11-03T04:21:11;101047.00;;;5.98;100.00
10071;BME280;5074;53.720;10.014;2022-11-03T04:23:57;101039.00;;;5.96;100.00
10071;BME280;5074;53.720;10.014;2022-11-03T04:26:26;101041.69;;;5.95;100.00
10071;BME280;5074;53.720;10.014;2022-11-03T04:28:56;101035.53;;;5.93;100.00
10071;BME280;5074;53.720;10.014;2022-11-03T04:31:24;101034.59;;;5.97;100.00
10071;BME280;5074;53.720;10.014;2022-11-03T04:33:53;101046.22;;;5.88;100.00
10071;BME280;5074;53.720;10.014;2022-11-03T04:36:22;101040.88;;;5.86;100.00
10071;BME280;5074;53.720;10.014;2022-11-03T04:38:50;101042.66;;;5.87;100.00
10071;BME280;5074;53.720;10.014;2022-11-03T04:41:20;101045.28;;;5.89;100.00
10071;BME280;5074;53.720;10.014;2022-11-03T04:43:50;101040.88;;;5.91;100.00
10071;BME280;5074;53.720;10.014;2022-11-03T04:46:23;101040.03;;;5.84;100.00
10071;BME280;5074;53.720;10.014;2022-11-03T04:48:52;101036.53;;;5.82;100.00
10071;BME280;5074;53.720;10.014;2022-11-03T04:51:23;101039.19;;;5.84;100.00
10071;BME280;5074;53.720;10.014;2022-11-03T04:53:53;101033.88;;;5.84;100.00
10071;BME280;5074;53.720;10.014;2022-11-03T04:56:24;101030.31;;;5.85;100.00
10071;BME280;5074;53.720;10.014;2022-11-03T04:58:52;101033.84;;;5.87;100.00
10071;BME280;5074;53.720;10.014;2022-11-03T05:01:23;101031.13;;;5.91;100.00
10071;BME280;5074;53.720;10.014;2022-11-03T05:03:53;101024.88;;;5.99;100.00
10071;BME280;5074;53.720;10.014;2022-11-03T05:06:22;101037.28;;;5.98;100.00
10071;BME280;5074;53.720;10.014;2022-11-03T05:08:54;101024.00;;;6.00;100.00
10071;BME280;5074;53.720;10.014;2022-11-03T05:11:28;101017.75;;;6.01;100.00
10071;BME280;5074;53.720;10.014;2022-11-03T05:13:58;101013.13;;;6.20;100.00
10071;BME280;5074;53.720;10.014;2022-11-03T05:16:28;101007.88;;;6.14;100.00
10071;BME280;5074;53.720;10.014;2022-11-03T05:18:57;101013.16;;;6.17;100.00
10071;BME280;5074;53.720;10.014;2022-11-03T05:21:26;101012.34;;;6.12;100.00
10071;BME280;5074;53.720;10.014;2022-11-03T05:23:57;101002.53;;;6.18;100.00
10071;BME280;5074;53.720;10.014;2022-11-03T05:26:31;101004.28;;;6.18;100.00
10071;BME280;5074;53.720;10.014;2022-11-03T05:29:01;101003.41;;;6.19;100.00
10071;BME280;5074;53.720;10.014;2022-11-03T05:31:34;101009.63;;;6.15;100.00
10071;BME280;5074;53.720;10.014;2022-11-03T05:34:20;100999.03;;;6.13;100.00
10071;BME280;5074;53.720;10.014;2022-11-03T05:36:52;100992.81;;;6.17;100.00
10071;BME280;5074;53.720;10.014;2022-11-03T05:39:28;100989.22;;;6.20;100.00
10071;BME280;5074;53.720;10.014;2022-11-03T05:41:57;100991.00;;;6.18;100.00
10071;BME280;5074;53.720;10.014;2022-11-03T05:44:31;100987.50;;;6.16;100.00
10071;BME280;5074;53.720;10.014;2022-11-03T05:47:08;100979.44;;;6.23;100.00
10071;BME280;5074;53.720;10.014;2022-11-03T05:49:39;100974.19;;;6.19;100.00
10071;BME280;5074;53.720;10.014;2022-11-03T05:52:12;100981.19;;;6.26;100.00
10071;BME280;5074;53.720;10.014;2022-11-03T05:54:44;100979.44;;;6.23;100.00
10071;BME280;5074;53.720;10.014;2022-11-03T05:57:13;100979.34;;;6.30;100.00
10071;BME280;5074;53.720;10.014;2022-11-03T05:59:42;100974.09;;;6.25;100.00
10071;BME280;5074;53.720;10.014;2022-11-03T06:02:25;100967.84;;;6.29;100.00
10071;BME280;5074;53.720;10.014;2022-11-03T06:04:55;100962.66;;;6.23;100.00
10071;BME280;5074;53.720;10.014;2022-11-03T06:07:25;100965.19;;;6.29;100.00
10071;BME280;5074;53.720;10.014;2022-11-03T06:09:56;100962.56;;;6.29;100.00
10071;BME280;5074;53.720;10.014;2022-11-03T06:12:25;100962.56;;;6.29;100.00
10071;BME280;5074;53.720;10.014;2022-11-03T06:14:53;100960.81;;;6.26;100.00
10071;BME280;5074;53.720;10.014;2022-11-03T06:17:23;100959.00;;;6.30;100.00
10071;BME280;5074;53.720;10.014;2022-11-03T06:19:54;100950.16;;;6.28;100.00
10071;BME280;5074;53.720;10.014;2022-11-03T06:22:24;100950.22;;;6.25;100.00
10071;BME280;5074;53.720;10.014;2022-11-03T06:24:55;100951.13;;;6.25;100.00
10071;BME280;5074;53.720;10.014;2022-11-03T06:27:28;100953.78;;;6.24;100.00
10071;BME280;5074;53.720;10.014;2022-11-03T06:29:59;100947.59;;;6.23;100.00
10071;BME280;5074;53.720;10.014;2022-11-03T06:32:32;100954.63;;;6.26;100.00
10071;BME280;5074;53.720;10.014;2022-11-03T06:35:00;100946.66;;;6.26;100.00
10071;BME280;5074;53.720;10.014;2022-11-03T06:37:31;100941.34;;;6.26;100.00
10071;BME280;5074;53.720;10.014;2022-11-03T06:40:01;100936.91;;;6.26;100.00
10071;BME280;5074;53.720;10.014;2022-11-03T06:42:31;100931.56;;;6.30;100.00
10071;BME280;5074;53.720;10.014;2022-11-03T06:45:00;100936.88;;;6.31;100.00
10071;BME280;5074;53.720;10.014;2022-11-03T06:47:31;100946.53;;;6.34;100.00
10071;BME280;5074;53.720;10.014;2022-11-03T06:49:59;100946.50;;;6.37;100.00
10071;BME280;5074;53.720;10.014;2022-11-03T06:52:29;100935.84;;;6.38;100.00
10071;BME280;5074;53.720;10.014;2022-11-03T06:55:07;100933.19;;;6.38;100.00
10071;BME280;5074;53.720;10.014;2022-11-03T06:57:45;100919.06;;;6.38;100.00
10071;BME280;5074;53.720;10.014;2022-11-03T07:00:19;100925.19;;;6.43;100.00
10071;BME280;5074;53.720;10.014;2022-11-03T07:03:09;100926.88;;;6.49;100.00
10071;BME280;5074;53.720;10.014;2022-11-03T07:05:41;100924.13;;;6.53;100.00
10071;BME280;5074;53.720;10.014;2022-11-03T07:08:18;100918.78;;;6.55;100.00
10071;BME280;5074;53.720;10.014;2022-11-03T07:10:49;100923.16;;;6.59;100.00
10071;BME280;5074;53.720;10.014;2022-11-03T07:13:19;100924.91;;;6.58;100.00
10071;BME280;5074;53.720;10.014;2022-11-03T07:15:49;100926.66;;;6.61;100.00
10071;BME280;5074;53.720;10.014;2022-11-03T07:18:21;100929.28;;;6.63;100.00
10071;BME280;5074;53.720;10.014;2022-11-03T07:20:50;100923.00;;;6.68;100.00
10071;BME280;5074;53.720;10.014;2022-11-03T07:23:21;100923.00;;;6.68;100.00
10071;BME280;5074;53.720;10.014;2022-11-03T07:25:51;100916.72;;;6.72;100.00
10071;BME280;5074;53.720;10.014;2022-11-03T07:28:27;100922.88;;;6.76;100.00
10071;BME280;5074;53.720;10.014;2022-11-03T07:30:58;100916.59;;;6.80;100.00
10071;BME280;5074;53.720;10.014;2022-11-03T07:33:30;100910.34;;;6.83;100.00
10071;BME280;5074;53.720;10.014;2022-11-03T07:35:59;100908.56;;;6.85;100.00
10071;BME280;5074;53.720;10.014;2022-11-03T07:38:45;100915.56;;;6.89;100.00
10071;BME280;5074;53.720;10.014;2022-11-03T07:41:17;100908.41;;;6.92;100.00
10071;BME280;5074;53.720;10.014;2022-11-03T07:43:55;100909.25;;;6.94;100.00
10071;BME280;5074;53.720;10.014;2022-11-03T07:46:24;100910.97;;;6.97;100.00
10071;BME280;5074;53.720;10.014;2022-11-03T07:48:56;100910.00;;;7.03;100.00
10071;BME280;5074;53.720;10.014;2022-11-03T07:51:26;100906.41;;;7.05;100.00
10071;BME280;5074;53.720;10.014;2022-11-03T07:54:00;100909.09;;;7.04;100.00
10071;BME280;5074;53.720;10.014;2022-11-03T07:56:32;100899.25;;;7.09;100.00
10071;BME280;5074;53.720;10.014;2022-11-03T07:59:10;100899.25;;;7.09;100.00
10071;BME280;5074;53.720;10.014;2022-11-03T08:01:41;100898.31;;;7.11;100.00
10071;BME280;5074;53.720;10.014;2022-11-03T08:04:12;100896.53;;;7.13;100.00
10071;BME280;5074;53.720;10.014;2022-11-03T08:06:43;100884.09;;;7.14;100.00
10071;BME280;5074;53.720;10.014;2022-11-03T08:09:11;100885.91;;;7.13;100.00
10071;BME280;5074;53.720;10.014;2022-11-03T08:11:39;100880.47;;;7.18;100.00
10071;BME280;5074;53.720;10.014;2022-11-03T08:14:07;100877.84;;;7.17;100.00
10071;BME280;5074;53.720;10.014;2022-11-03T08:16:36;100874.25;;;7.21;100.00
10071;BME280;5074;53.720;10.014;2022-11-03T08:19:05;100872.41;;;7.23;100.00
10071;BME280;5074;53.720;10.014;2022-11-03T08:21:34;100869.69;;;7.26;100.00
10071;BME280;5074;53.720;10.014;2022-11-03T08:24:03;100868.72;;;7.30;100.00
10071;BME280;5074;53.720;10.014;2022-11-03T08:26:31;100859.81;;;7.33;100.00
10071;BME280;5074;53.720;10.014;2022-11-03T08:28:59;100861.53;;;7.34;100.00
10071;BME280;5074;53.720;10.014;2022-11-03T08:31:27;100863.28;;;7.36;100.00
10071;BME280;5074;53.720;10.014;2022-11-03T08:33:55;100856.09;;;7.41;100.00
10071;BME280;5074;53.720;10.014;2022-11-03T08:36:23;100860.44;;;7.45;100.00
10071;BME280;5074;53.720;10.014;2022-11-03T08:38:53;100858.53;;;7.51;100.00
10071;BME280;5074;53.720;10.014;2022-11-03T08:41:21;100846.88;;;7.58;100.00
10071;BME280;5074;53.720;10.014;2022-11-03T08:43:49;100837.91;;;7.62;100.00
10071;BME280;5074;53.720;10.014;2022-11-03T08:46:17;100835.03;;;7.71;100.00
10071;BME280;5074;53.720;10.014;2022-11-03T08:48:45;100834.00;;;7.78;100.00
10071;BME280;5074;53.720;10.014;2022-11-03T08:51:14;100835.56;;;7.89;100.00
10071;BME280;5074;53.720;10.014;2022-11-03T08:53:42;100831.00;;;7.94;100.00
10071;BME280;5074;53.720;10.014;2022-11-03T08:56:12;100830.00;;;7.98;100.00
10071;BME280;5074;53.720;10.014;2022-11-03T08:58:44;100837.84;;;8.04;100.00
10071;BME280;5074;53.720;10.014;2022-11-03T09:01:13;100843.00;;;8.12;100.00
10071;BME280;5074;53.720;10.014;2022-11-03T09:03:41;100840.94;;;8.23;100.00
10071;BME280;5074;53.720;10.014;2022-11-03T09:06:09;100837.25;;;8.29;100.00
10071;BME280;5074;53.720;10.014;2022-11-03T09:08:37;100832.69;;;8.34;100.00
10071;BME280;5074;53.720;10.014;2022-11-03T09:11:27;100835.28;;;8.37;100.00
10071;BME280;5074;53.720;10.014;2022-11-03T09:13:55;100825.25;;;8.48;100.00
10071;BME280;5074;53.720;10.014;2022-11-03T09:16:23;100812.81;;;8.49;100.00
10071;BME280;5074;53.720;10.014;2022-11-03T09:18:52;100809.97;;;8.57;100.00
10071;BME280;5074;53.720;10.014;2022-11-03T09:21:19;100807.13;;;8.63;100.00
10071;BME280;5074;53.720;10.014;2022-11-03T09:23:47;100800.59;;;8.75;100.00
10071;BME280;5074;53.720;10.014;2022-11-03T09:26:15;100793.34;;;8.80;100.00
10071;BME280;5074;53.720;10.014;2022-11-03T09:28:45;100793.94;;;8.91;100.00
10071;BME280;5074;53.720;10.014;2022-11-03T09:31:15;100796.56;;;8.93;100.00
10071;BME280;5074;53.720;10.014;2022-11-03T09:33:43;100792.63;;;9.06;100.00
10071;BME280;5074;53.720;10.014;2022-11-03T09:36:11;100792.38;;;9.14;100.00
10071;BME280;5074;53.720;10.014;2022-11-03T09:38:39;100784.97;;;9.25;100.00
10071;BME280;5074;53.720;10.014;2022-11-03T09:41:07;100781.19;;;9.32;100.00
10071;BME280;5074;53.720;10.014;2022-11-03T09:43:57;100784.41;;;9.44;100.00
10071;BME280;5074;53.720;10.014;2022-11-03T09:46:27;100780.69;;;9.49;100.00
10071;BME280;5074;53.720;10.014;2022-11-03T09:48:57;100772.53;;;9.54;100.00
10071;BME280;5074;53.720;10.014;2022-11-03T09:51:26;100790.25;;;9.56;100.00
10071;BME280;5074;53.720;10.014;2022-11-03T09:53:56;100776.56;;;9.67;100.00
10071;BME280;5074;53.720;10.014;2022-11-03T09:56:25;100777.31;;;9.72;100.00
10071;BME280;5074;53.720;10.014;2022-11-03T09:58:53;100772.63;;;9.79;100.00
10071;BME280;5074;53.720;10.014;2022-11-03T10:01:23;100763.53;;;9.85;100.00
10071;BME280;5074;53.720;10.014;2022-11-03T10:03:53;100759.22;;;9.82;100.00
10071;BME280;5074;53.720;10.014;2022-11-03T10:06:24;100761.47;;;9.95;100.00
10071;BME280;5074;53.720;10.014;2022-11-03T10:08:52;100756.91;;;9.98;100.00
10071;BME280;5074;53.720;10.014;2022-11-03T10:11:20;100752.44;;;9.99;100.00
10071;BME280;5074;53.720;10.014;2022-11-03T10:13:52;100754.03;;;10.04;100.00
10071;BME280;5074;53.720;10.014;2022-11-03T10:16:23;100750.44;;;10.05;100.00
10071;BME280;5074;53.720;10.014;2022-11-03T10:18:53;100735.91;;;10.14;100.00
10071;BME280;5074;53.720;10.014;2022-11-03T10:21:24;100742.22;;;10.12;100.00
10071;BME280;5074;53.720;10.014;2022-11-03T10:23:53;100748.63;;;10.06;100.00
10071;BME280;5074;53.720;10.014;2022-11-03T10:26:22;100738.50;;;10.16;100.00
10071;BME280;5074;53.720;10.014;2022-11-03T10:28:57;100735.47;;;10.26;100.00
10071;BME280;5074;53.720;10.014;2022-11-03T10:31:33;100725.56;;;10.30;100.00
10071;BME280;5074;53.720;10.014;2022-11-03T10:34:02;100725.44;;;10.35;100.00
10071;BME280;5074;53.720;10.014;2022-11-03T10:36:31;100725.44;;;10.33;100.00
10071;BME280;5074;53.720;10.014;2022-11-03T10:39:22;100726.91;;;10.43;100.00
10071;BME280;5074;53.720;10.014;2022-11-03T10:41:55;100731.88;;;10.54;100.00
10071;BME280;5074;53.720;10.014;2022-11-03T10:44:25;100716.47;;;10.61;100.00
10071;BME280;5074;53.720;10.014;2022-11-03T10:46:56;100714.59;;;10.65;100.00
10071;BME280;5074;53.720;10.014;2022-11-03T10:49:26;100718.19;;;10.64;100.00
10071;BME280;5074;53.720;10.014;2022-11-03T10:52:00;100707.47;;;10.64;100.00
10071;BME280;5074;53.720;10.014;2022-11-03T10:54:34;100710.97;;;10.66;100.00
10071;BME280;5074;53.720;10.014;2022-11-03T10:57:03;100709.69;;;10.76;100.00
10071;BME280;5074;53.720;10.014;2022-11-03T10:59:35;100702.38;;;10.81;100.00
10071;BME280;5074;53.720;10.014;2022-11-03T11:02:13;100703.97;;;10.87;100.00
10071;BME280;5074;53.720;10.014;2022-11-03T11:04:42;100698.44;;;10.91;100.00
10071;BME280;5074;53.720;10.014;2022-11-03T11:07:18;100705.03;;;11.05;100.00
10071;BME280;5074;53.720;10.014;2022-11-03T11:09:49;100689.66;;;11.11;100.00
10071;BME280;5074;53.720;10.014;2022-11-03T11:12:19;100687.78;;;11.13;100.00
10071;BME280;5074;53.720;10.014;2022-11-03T11:14:55;100681.25;;;11.21;100.00
10071;BME280;5074;53.720;10.014;2022-11-03T11:17:45;100670.19;;;11.30;100.00
10071;BME280;5074;53.720;10.014;2022-11-03T11:20:36;100674.38;;;11.37;100.00
10071;BME280;5074;53.720;10.014;2022-11-03T11:26:16;100668.50;;;11.50;100.00
10071;BME280;5074;53.720;10.014;2022-11-03T11:28:45;100664.63;;;11.58;100.00
10071;BME280;5074;53.720;10.014;2022-11-03T11:31:29;100658.31;;;11.59;100.00
10071;BME280;5074;53.720;10.014;2022-11-03T11:37:32;100645.72;;;11.84;100.00
10071;BME280;5074;53.720;10.014;2022-11-03T11:40:06;100642.09;;;11.85;100.00
10071;BME280;5074;53.720;10.014;2022-11-03T11:48:49;100613.41;;;12.09;100.00
10071;BME280;5074;53.720;10.014;2022-11-03T11:51:32;100620.56;;;12.08;100.00
10071;BME280;5074;53.720;10.014;2022-11-03T11:54:05;100609.56;;;12.14;100.00
10071;BME280;5074;53.720;10.014;2022-11-03T11:56:45;100606.75;;;12.18;100.00
10071;BME280;5074;53.720;10.014;2022-11-03T11:59:20;100604.91;;;12.20;100.00
10071;BME280;5074;53.720;10.014;2022-11-03T12:01:53;100595.19;;;12.17;100.00
10071;BME280;5074;53.720;10.014;2022-11-03T12:04:24;100594.47;;;12.13;100.00
10071;BME280;5074;53.720;10.014;2022-11-03T12:06:53;100598.41;;;12.05;100.00
10071;BME280;5074;53.720;10.014;2022-11-03T12:09:25;100586.44;;;12.13;100.00
10071;BME280;5074;53.720;10.014;2022-11-03T12:11:56;100579.09;;;12.17;100.00
10071;BME280;5074;53.720;10.014;2022-11-03T12:14:33;100575.88;;;12.09;100.00
10071;BME280;5074;53.720;10.014;2022-11-03T12:17:31;100569.75;;;12.07;100.00
10071;BME280;5074;53.720;10.014;2022-11-03T12:20:33;100563.31;;;12.11;100.00
10071;BME280;5074;53.720;10.014;2022-11-03T12:23:01;100561.56;;;12.10;100.00
10071;BME280;5074;53.720;10.014;2022-11-03T12:25:35;100561.34;;;12.14;100.00
10071;BME280;5074;53.720;10.014;2022-11-03T12:28:03;100553.16;;;12.18;100.00
10071;BME280;5074;53.720;10.014;2022-11-03T12:30:32;100543.13;;;12.23;100.00
10071;BME280;5074;53.720;10.014;2022-11-03T12:33:05;100543.56;;;12.13;100.00
10071;BME280;5074;53.720;10.014;2022-11-03T12:35:34;100535.31;;;12.18;100.00
10071;BME280;5074;53.720;10.014;2022-11-03T12:38:02;100529.88;;;12.20;100.00
10071;BME280;5074;53.720;10.014;2022-11-03T12:40:30;100516.25;;;12.24;100.00
10071;BME280;5074;53.720;10.014;2022-11-03T12:42:59;100515.41;;;12.24;100.00
10071;BME280;5074;53.720;10.014;2022-11-03T12:45:27;100516.94;;;12.29;100.00
10071;BME280;5074;53.720;10.014;2022-11-03T12:47:55;100510.28;;;12.38;100.00
10071;BME280;5074;53.720;10.014;2022-11-03T12:50:23;100505.28;;;12.49;100.00
10071;BME280;5074;53.720;10.014;2022-11-03T12:52:51;100507.81;;;12.53;100.00
10071;BME280;5074;53.720;10.014;2022-11-03T12:55:19;100505.84;;;12.56;100.00
10071;BME280;5074;53.720;10.014;2022-11-03T12:57:47;100492.09;;;12.64;100.00
10071;BME280;5074;53.720;10.014;2022-11-03T13:00:17;100492.09;;;12.64;100.00
10071;BME280;5074;53.720;10.014;2022-11-03T13:02:45;100486.56;;;12.67;100.00
10071;BME280;5074;53.720;10.014;2022-11-03T13:05:13;100486.66;;;12.65;100.00
10071;BME280;5074;53.720;10.014;2022-11-03T13:07:41;100475.50;;;12.56;100.00
10071;BME280;5074;53.720;10.014;2022-11-03T13:10:10;100468.31;;;12.56;100.00
10071;BME280;5074;53.720;10.014;2022-11-03T13:12:38;100468.09;;;12.42;100.00
10071;BME280;5074;53.720;10.014;2022-11-03T13:15:08;100463.56;;;12.44;100.00
10071;BME280;5074;53.720;10.014;2022-11-03T13:17:40;100458.47;;;12.38;100.00
10071;BME280;5074;53.720;10.014;2022-11-03T13:20:29;100468.41;;;12.36;100.00
10071;BME280;5074;53.720;10.014;2022-11-03T13:22:57;100454.16;;;12.35;100.00
10071;BME280;5074;53.720;10.014;2022-11-03T13:25:25;100450.56;;;12.34;100.00